sensor_id;sensor_type;location;lat;lon;timestamp;pressure;altitude;pressure_sealevel;temperature;humidity
60611;BME280;46439;51.164;13.572;2022-07-15T00:01:18;100264.77;;;17.11;51.22
60611;BME280;46439;51.164;13.572;2022-07-15T00:03:46;100260.63;;;17.07;51.27
60611;BME280;46439;51.164;13.572;2022-07-15T00:06:14;100261.85;;;17.02;51.10
60611;BME280;46439;51.164;13.572;2022-07-15T00:08:43;100266.14;;;16.95;51.10
60611;BME280;46439;51.164;13.572;2022-07-15T00:11:12;100261.54;;;16.91;51.16
60611;BME280;46439;51.164;13.572;2022-07-15T00:13:40;100263.30;;;16.87;51.25
60611;BME280;46439;51.164;13.572;2022-07-15T00:16:08;100262.13;;;16.81;51.13
60611;BME280;46439;51.164;13.572;2022-07-15T00:18:37;100266.15;;;16.80;51.28
60611;BME280;46439;51.164;13.572;2022-07-15T00:21:05;100267.45;;;16.79;51.23
60611;BME280;46439;51.164;13.572;2022-07-15T00:23:33;100267.95;;;16.76;51.29
60611;BME280;46439;51.164;13.572;2022-07-15T00:26:02;100268.61;;;16.72;51.25
60611;BME280;46439;51.164;13.572;2022-07-15T00:28:30;100270.72;;;16.70;51.28
60611;BME280;46439;51.164;13.572;2022-07-15T00:30:58;100270.55;;;16.67;51.36
60611;BME280;46439;51.164;13.572;2022-07-15T00:33:27;100268.88;;;16.58;51.13
60611;BME280;46439;51.164;13.572;2022-07-15T00:35:55;100264.20;;;16.45;51.01
60611;BME280;46439;51.164;13.572;2022-07-15T00:38:24;100268.42;;;16.37;51.06
60611;BME280;46439;51.164;13.572;2022-07-15T00:40:52;100262.56;;;16.30;51.04
60611;BME280;46439;51.164;13.572;2022-07-15T00:43:21;100263.02;;;16.26;51.13
60611;BME280;46439;51.164;13.572;2022-07-15T00:45:49;100261.71;;;16.19;51.13
60611;BME280;46439;51.164;13.572;2022-07-15T00:48:17;100261.53;;;16.11;51.06
60611;BME280;46439;51.164;13.572;2022-07-15T00:50:46;100265.84;;;16.06;51.02
60611;BME280;46439;51.164;13.572;2022-07-15T00:53:18;100265.46;;;16.01;51.11
60611;BME280;46439;51.164;13.572;2022-07-15T00:55:48;100269.19;;;15.98;51.16
60611;BME280;46439;51.164;13.572;2022-07-15T00:58:19;100265.41;;;15.96;51.25
60611;BME280;46439;51.164;13.572;2022-07-15T01:00:49;100267.36;;;15.94;51.38
60611;BME280;46439;51.164;13.572;2022-07-15T01:03:19;100268.33;;;15.94;51.37
60611;BME280;46439;51.164;13.572;2022-07-15T01:05:48;100267.41;;;15.94;51.58
60611;BME280;46439;51.164;13.572;2022-07-15T01:08:17;100267.25;;;15.93;51.65
60611;BME280;46439;51.164;13.572;2022-07-15T01:10:46;100267.44;;;15.91;51.61
60611;BME280;46439;51.164;13.572;2022-07-15T01:13:15;100267.50;;;15.88;51.60
60611;BME280;46439;51.164;13.572;2022-07-15T01:15:43;100273.79;;;15.84;51.77
60611;BME280;46439;51.164;13.572;2022-07-15T01:18:12;100273.66;;;15.80;51.59
60611;BME280;46439;51.164;13.572;2022-07-15T01:20:42;100278.64;;;15.78;51.72
60611;BME280;46439;51.164;13.572;2022-07-15T01:23:10;100278.14;;;15.73;51.82
60611;BME280;46439;51.164;13.572;2022-07-15T01:25:39;100278.11;;;15.69;51.75
60611;BME280;46439;51.164;13.572;2022-07-15T01:28:09;100283.52;;;15.66;51.83
60611;BME280;46439;51.164;13.572;2022-07-15T01:30:37;100281.79;;;15.63;51.91
60611;BME280;46439;51.164;13.572;2022-07-15T01:33:06;100282.81;;;15.59;51.85
60611;BME280;46439;51.164;13.572;2022-07-15T01:35:34;100279.94;;;15.53;51.86
60611;BME280;46439;51.164;13.572;2022-07-15T01:38:03;100281.05;;;15.49;51.87
60611;BME280;46439;51.164;13.572;2022-07-15T01:40:31;100277.84;;;15.43;51.91
60611;BME280;46439;51.164;13.572;2022-07-15T01:43:00;100279.34;;;15.38;51.96
60611;BME280;46439;51.164;13.572;2022-07-15T01:45:28;100286.71;;;15.33;51.83
60611;BME280;46439;51.164;13.572;2022-07-15T01:47:57;100289.30;;;15.29;51.99
60611;BME280;46439;51.164;13.572;2022-07-15T01:50:26;100290.59;;;15.27;52.03
60611;BME280;46439;51.164;13.572;2022-07-15T01:52:54;100294.80;;;15.27;52.11
60611;BME280;46439;51.164;13.572;2022-07-15T01:55:23;100294.50;;;15.25;52.16
60611;BME280;46439;51.164;13.572;2022-07-15T01:57:51;100292.55;;;15.20;52.20
60611;BME280;46439;51.164;13.572;2022-07-15T02:00:19;100291.02;;;15.17;52.11
60611;BME280;46439;51.164;13.572;2022-07-15T02:02:48;100290.31;;;15.14;52.24
60611;BME280;46439;51.164;13.572;2022-07-15T02:05:16;100292.15;;;15.14;52.32
60611;BME280;46439;51.164;13.572;2022-07-15T02:07:45;100296.71;;;15.13;52.35
60611;BME280;46439;51.164;13.572;2022-07-15T02:10:13;100300.33;;;15.12;52.36
60611;BME280;46439;51.164;13.572;2022-07-15T02:12:41;100300.20;;;15.10;52.36
60611;BME280;46439;51.164;13.572;2022-07-15T02:15:11;100299.39;;;15.08;52.54
60611;BME280;46439;51.164;13.572;2022-07-15T02:17:39;100303.21;;;15.05;52.51
60611;BME280;46439;51.164;13.572;2022-07-15T02:20:09;100299.38;;;14.99;52.45
60611;BME280;46439;51.164;13.572;2022-07-15T02:22:38;100301.73;;;14.90;52.38
60611;BME280;46439;51.164;13.572;2022-07-15T02:25:07;100302.77;;;14.82;52.42
60611;BME280;46439;51.164;13.572;2022-07-15T02:27:36;100313.20;;;14.77;52.39
60611;BME280;46439;51.164;13.572;2022-07-15T02:30:06;100312.91;;;14.73;52.49
60611;BME280;46439;51.164;13.572;2022-07-15T02:32:35;100313.95;;;14.71;52.60
60611;BME280;46439;51.164;13.572;2022-07-15T02:35:04;100315.42;;;14.70;52.59
60611;BME280;46439;51.164;13.572;2022-07-15T02:37:33;100314.66;;;14.68;52.68
60611;BME280;46439;51.164;13.572;2022-07-15T02:40:01;100316.45;;;14.67;52.67
60611;BME280;46439;51.164;13.572;2022-07-15T02:42:30;100321.55;;;14.67;52.82
60611;BME280;46439;51.164;13.572;2022-07-15T02:44:58;100320.38;;;14.66;52.86
60611;BME280;46439;51.164;13.572;2022-07-15T02:47:27;100321.52;;;14.63;52.85
60611;BME280;46439;51.164;13.572;2022-07-15T02:49:55;100326.74;;;14.57;52.74
60611;BME280;46439;51.164;13.572;2022-07-15T02:52:23;100326.27;;;14.54;52.82
60611;BME280;46439;51.164;13.572;2022-07-15T02:54:52;100331.35;;;14.47;52.85
60611;BME280;46439;51.164;13.572;2022-07-15T02:57:20;100330.23;;;14.40;52.75
60611;BME280;46439;51.164;13.572;2022-07-15T02:59:48;100330.30;;;14.35;52.81
60611;BME280;46439;51.164;13.572;2022-07-15T03:02:17;100336.10;;;14.29;52.86
60611;BME280;46439;51.164;13.572;2022-07-15T03:04:45;100336.00;;;14.20;52.73
60611;BME280;46439;51.164;13.572;2022-07-15T03:07:14;100333.93;;;14.13;52.90
60611;BME280;46439;51.164;13.572;2022-07-15T03:09:42;100337.08;;;14.10;52.84
60611;BME280;46439;51.164;13.572;2022-07-15T03:12:11;100338.42;;;14.08;53.00
60611;BME280;46439;51.164;13.572;2022-07-15T03:14:40;100344.73;;;14.08;53.02
60611;BME280;46439;51.164;13.572;2022-07-15T03:17:09;100346.21;;;14.06;53.11
60611;BME280;46439;51.164;13.572;2022-07-15T03:19:37;100347.02;;;14.04;53.08
60611;BME280;46439;51.164;13.572;2022-07-15T03:22:06;100348.08;;;14.04;53.27
60611;BME280;46439;51.164;13.572;2022-07-15T03:24:35;100351.48;;;14.05;53.35
60611;BME280;46439;51.164;13.572;2022-07-15T03:27:04;100352.63;;;14.04;53.39
60611;BME280;46439;51.164;13.572;2022-07-15T03:29:32;100353.36;;;14.02;53.43
60611;BME280;46439;51.164;13.572;2022-07-15T03:32:00;100356.98;;;14.02;53.55
60611;BME280;46439;51.164;13.572;2022-07-15T03:34:29;100362.47;;;14.02;53.52
60611;BME280;46439;51.164;13.572;2022-07-15T03:36:58;100367.65;;;14.00;53.58
60611;BME280;46439;51.164;13.572;2022-07-15T03:39:27;100369.14;;;13.97;53.65
60611;BME280;46439;51.164;13.572;2022-07-15T03:41:55;100371.48;;;13.98;53.69
60611;BME280;46439;51.164;13.572;2022-07-15T03:44:24;100368.39;;;13.98;53.74
60611;BME280;46439;51.164;13.572;2022-07-15T03:46:53;100373.95;;;13.95;53.71
60611;BME280;46439;51.164;13.572;2022-07-15T03:49:22;100376.92;;;13.92;53.75
60611;BME280;46439;51.164;13.572;2022-07-15T03:51:50;100377.41;;;13.91;53.80
60611;BME280;46439;51.164;13.572;2022-07-15T03:54:18;100378.66;;;13.91;53.85
60611;BME280;46439;51.164;13.572;2022-07-15T03:56:47;100379.70;;;13.94;54.00
60611;BME280;46439;51.164;13.572;2022-07-15T03:59:16;100382.18;;;13.96;54.09
60611;BME280;46439;51.164;13.572;2022-07-15T04:01:45;100385.27;;;13.99;54.10
60611;BME280;46439;51.164;13.572;2022-07-15T04:04:13;100390.17;;;14.00;54.35
60611;BME280;46439;51.164;13.572;2022-07-15T04:06:42;100390.48;;;14.02;54.39
60611;BME280;46439;51.164;13.572;2022-07-15T04:09:10;100392.89;;;14.05;54.42
60611;BME280;46439;51.164;13.572;2022-07-15T04:11:39;100397.23;;;14.08;54.52
60611;BME280;46439;51.164;13.572;2022-07-15T04:14:11;100396.14;;;14.08;54.40
60611;BME280;46439;51.164;13.572;2022-07-15T04:16:40;100395.75;;;14.07;54.55
60611;BME280;46439;51.164;13.572;2022-07-15T04:19:09;100397.70;;;14.02;54.49
60611;BME280;46439;51.164;13.572;2022-07-15T04:21:37;100400.48;;;13.98;54.47
60611;BME280;46439;51.164;13.572;2022-07-15T04:24:06;100405.78;;;13.96;54.43
60611;BME280;46439;51.164;13.572;2022-07-15T04:26:35;100408.91;;;13.93;54.47
60611;BME280;46439;51.164;13.572;2022-07-15T04:29:03;100405.62;;;13.90;54.48
60611;BME280;46439;51.164;13.572;2022-07-15T04:31:32;100410.17;;;13.91;54.53
60611;BME280;46439;51.164;13.572;2022-07-15T04:34:00;100412.37;;;13.92;54.83
60611;BME280;46439;51.164;13.572;2022-07-15T04:36:28;100418.20;;;13.95;54.88
60611;BME280;46439;51.164;13.572;2022-07-15T04:38:56;100415.27;;;13.98;54.84
60611;BME280;46439;51.164;13.572;2022-07-15T04:41:25;100419.40;;;13.99;55.02
60611;BME280;46439;51.164;13.572;2022-07-15T04:43:56;100415.52;;;14.03;55.03
60611;BME280;46439;51.164;13.572;2022-07-15T04:46:25;100423.38;;;14.01;55.03
60611;BME280;46439;51.164;13.572;2022-07-15T04:48:53;100422.81;;;14.02;55.02
60611;BME280;46439;51.164;13.572;2022-07-15T04:51:40;100424.77;;;14.06;55.18
60611;BME280;46439;51.164;13.572;2022-07-15T04:54:09;100427.42;;;14.08;55.22
60611;BME280;46439;51.164;13.572;2022-07-15T04:56:38;100424.54;;;14.10;55.22
60611;BME280;46439;51.164;13.572;2022-07-15T04:59:06;100428.33;;;14.06;55.18
60611;BME280;46439;51.164;13.572;2022-07-15T05:01:35;100433.07;;;14.05;55.16
60611;BME280;46439;51.164;13.572;2022-07-15T05:04:03;100438.05;;;14.02;55.17
60611;BME280;46439;51.164;13.572;2022-07-15T05:06:31;100440.02;;;13.98;55.23
60611;BME280;46439;51.164;13.572;2022-07-15T05:09:00;100442.69;;;13.96;55.23
60611;BME280;46439;51.164;13.572;2022-07-15T05:11:28;100447.52;;;13.96;55.14
60611;BME280;46439;51.164;13.572;2022-07-15T05:13:56;100451.34;;;13.99;55.23
60611;BME280;46439;51.164;13.572;2022-07-15T05:16:25;100457.43;;;13.99;55.37
60611;BME280;46439;51.164;13.572;2022-07-15T05:18:53;100459.34;;;13.99;55.33
60611;BME280;46439;51.164;13.572;2022-07-15T05:21:21;100468.92;;;14.02;55.43
60611;BME280;46439;51.164;13.572;2022-07-15T05:23:50;100466.90;;;14.08;55.52
60611;BME280;46439;51.164;13.572;2022-07-15T05:26:18;100466.45;;;14.16;55.68
60611;BME280;46439;51.164;13.572;2022-07-15T05:28:46;100470.85;;;14.24;55.75
60611;BME280;46439;51.164;13.572;2022-07-15T05:31:15;100474.92;;;14.32;55.81
60611;BME280;46439;51.164;13.572;2022-07-15T05:33:43;100477.77;;;14.40;55.86
60611;BME280;46439;51.164;13.572;2022-07-15T05:36:14;100478.29;;;14.48;56.03
60611;BME280;46439;51.164;13.572;2022-07-15T05:38:43;100480.55;;;14.56;56.04
60611;BME280;46439;51.164;13.572;2022-07-15T05:41:12;100481.59;;;14.60;56.06
60611;BME280;46439;51.164;13.572;2022-07-15T05:43:40;100487.58;;;14.66;56.13
60611;BME280;46439;51.164;13.572;2022-07-15T05:46:08;100485.29;;;14.73;56.17
60611;BME280;46439;51.164;13.572;2022-07-15T05:48:37;100484.98;;;14.81;56.31
60611;BME280;46439;51.164;13.572;2022-07-15T05:51:07;100483.36;;;14.90;56.30
60611;BME280;46439;51.164;13.572;2022-07-15T05:53:36;100484.75;;;14.96;56.40
60611;BME280;46439;51.164;13.572;2022-07-15T05:56:05;100483.55;;;15.01;56.54
60611;BME280;46439;51.164;13.572;2022-07-15T05:58:34;100485.84;;;15.09;56.50
60611;BME280;46439;51.164;13.572;2022-07-15T06:01:02;100487.05;;;15.18;56.57
60611;BME280;46439;51.164;13.572;2022-07-15T06:03:31;100484.95;;;15.27;56.68
60611;BME280;46439;51.164;13.572;2022-07-15T06:06:00;100483.98;;;15.36;56.73
60611;BME280;46439;51.164;13.572;2022-07-15T06:08:30;100474.23;;;15.47;56.82
60611;BME280;46439;51.164;13.572;2022-07-15T06:10:59;100478.83;;;15.54;56.82
60611;BME280;46439;51.164;13.572;2022-07-15T06:13:27;100478.97;;;15.61;56.87
60611;BME280;46439;51.164;13.572;2022-07-15T06:15:55;100476.77;;;15.70;56.90
60611;BME280;46439;51.164;13.572;2022-07-15T06:18:24;100479.14;;;15.77;56.97
60611;BME280;46439;51.164;13.572;2022-07-15T06:20:54;100486.70;;;15.85;57.09
60611;BME280;46439;51.164;13.572;2022-07-15T06:23:23;100487.99;;;15.92;57.05
60611;BME280;46439;51.164;13.572;2022-07-15T06:25:51;100492.89;;;16.00;57.10
60611;BME280;46439;51.164;13.572;2022-07-15T06:28:20;100494.67;;;16.05;57.03
60611;BME280;46439;51.164;13.572;2022-07-15T06:30:48;100490.94;;;16.13;57.11
60611;BME280;46439;51.164;13.572;2022-07-15T06:33:17;100496.84;;;16.21;57.19
60611;BME280;46439;51.164;13.572;2022-07-15T06:35:45;100493.52;;;16.27;57.20
60611;BME280;46439;51.164;13.572;2022-07-15T06:38:13;100492.04;;;16.35;57.18
60611;BME280;46439;51.164;13.572;2022-07-15T06:40:43;100492.99;;;16.42;57.21
60611;BME280;46439;51.164;13.572;2022-07-15T06:43:11;100494.88;;;16.50;57.22
60611;BME280;46439;51.164;13.572;2022-07-15T06:45:40;100498.38;;;16.58;57.30
60611;BME280;46439;51.164;13.572;2022-07-15T06:48:08;100496.42;;;16.64;57.30
60611;BME280;46439;51.164;13.572;2022-07-15T06:50:37;100493.95;;;16.66;57.13
60611;BME280;46439;51.164;13.572;2022-07-15T06:53:05;100496.61;;;16.73;57.28
60611;BME280;46439;51.164;13.572;2022-07-15T06:55:33;100496.19;;;16.83;57.34
60611;BME280;46439;51.164;13.572;2022-07-15T06:58:02;100498.06;;;16.87;57.38
60611;BME280;46439;51.164;13.572;2022-07-15T07:00:31;100501.55;;;16.92;57.27
60611;BME280;46439;51.164;13.572;2022-07-15T07:02:59;100505.11;;;16.94;57.00
60611;BME280;46439;51.164;13.572;2022-07-15T07:05:28;100502.40;;;16.99;57.27
60611;BME280;46439;51.164;13.572;2022-07-15T07:07:56;100508.66;;;17.04;57.15
60611;BME280;46439;51.164;13.572;2022-07-15T07:10:26;100504.94;;;17.10;57.17
60611;BME280;46439;51.164;13.572;2022-07-15T07:12:55;100507.95;;;17.16;57.21
60611;BME280;46439;51.164;13.572;2022-07-15T07:15:24;100503.30;;;17.24;57.33
60611;BME280;46439;51.164;13.572;2022-07-15T07:17:53;100501.59;;;17.31;57.29
60611;BME280;46439;51.164;13.572;2022-07-15T07:20:22;100498.11;;;17.40;57.37
60611;BME280;46439;51.164;13.572;2022-07-15T07:22:50;100502.73;;;17.49;57.50
60611;BME280;46439;51.164;13.572;2022-07-15T07:25:18;100503.64;;;17.55;57.27
60611;BME280;46439;51.164;13.572;2022-07-15T07:27:47;100508.21;;;17.60;57.34
60611;BME280;46439;51.164;13.572;2022-07-15T07:30:16;100515.14;;;17.59;57.09
60611;BME280;46439;51.164;13.572;2022-07-15T07:32:45;100514.46;;;17.60;57.04
60611;BME280;46439;51.164;13.572;2022-07-15T07:35:13;100512.48;;;17.63;57.07
60611;BME280;46439;51.164;13.572;2022-07-15T07:37:41;100509.64;;;17.66;57.08
60611;BME280;46439;51.164;13.572;2022-07-15T07:40:11;100511.86;;;17.67;57.03
60611;BME280;46439;51.164;13.572;2022-07-15T07:42:39;100507.40;;;17.72;57.06
60611;BME280;46439;51.164;13.572;2022-07-15T07:45:09;100510.58;;;17.77;57.05
60611;BME280;46439;51.164;13.572;2022-07-15T07:47:38;100507.77;;;17.83;57.10
60611;BME280;46439;51.164;13.572;2022-07-15T07:50:12;100506.64;;;17.90;57.09
60611;BME280;46439;51.164;13.572;2022-07-15T07:52:40;100505.66;;;17.96;57.10
60611;BME280;46439;51.164;13.572;2022-07-15T07:55:10;100504.71;;;18.08;57.13
60611;BME280;46439;51.164;13.572;2022-07-15T07:57:49;100504.41;;;18.23;57.24
60611;BME280;46439;51.164;13.572;2022-07-15T08:00:19;100505.96;;;18.35;57.32
60611;BME280;46439;51.164;13.572;2022-07-15T08:02:48;100504.76;;;18.40;57.38
60611;BME280;46439;51.164;13.572;2022-07-15T08:05:17;100508.30;;;18.47;57.20
60611;BME280;46439;51.164;13.572;2022-07-15T08:07:45;100512.08;;;18.49;57.17
60611;BME280;46439;51.164;13.572;2022-07-15T08:10:15;100509.21;;;18.48;56.98
60611;BME280;46439;51.164;13.572;2022-07-15T08:12:43;100503.88;;;18.50;56.96
60611;BME280;46439;51.164;13.572;2022-07-15T08:15:12;100503.08;;;18.49;56.93
60611;BME280;46439;51.164;13.572;2022-07-15T08:17:41;100495.36;;;18.55;56.88
60611;BME280;46439;51.164;13.572;2022-07-15T08:20:11;100494.84;;;18.63;57.01
60611;BME280;46439;51.164;13.572;2022-07-15T08:22:41;100499.02;;;18.69;56.96
60611;BME280;46439;51.164;13.572;2022-07-15T08:25:10;100499.86;;;18.69;56.85
60611;BME280;46439;51.164;13.572;2022-07-15T08:27:39;100496.52;;;18.64;56.79
60611;BME280;46439;51.164;13.572;2022-07-15T08:30:09;100496.79;;;18.61;56.67
60611;BME280;46439;51.164;13.572;2022-07-15T08:32:37;100494.97;;;18.57;56.47
60611;BME280;46439;51.164;13.572;2022-07-15T08:35:07;100499.40;;;18.61;56.45
60611;BME280;46439;51.164;13.572;2022-07-15T08:37:35;100492.70;;;18.60;56.51
60611;BME280;46439;51.164;13.572;2022-07-15T08:40:07;100489.94;;;18.59;56.29
60611;BME280;46439;51.164;13.572;2022-07-15T08:42:40;100490.27;;;18.67;56.42
60611;BME280;46439;51.164;13.572;2022-07-15T08:45:12;100487.44;;;18.81;56.59
60611;BME280;46439;51.164;13.572;2022-07-15T08:47:43;100490.80;;;18.91;56.73
60611;BME280;46439;51.164;13.572;2022-07-15T08:50:14;100491.69;;;18.96;56.65
60611;BME280;46439;51.164;13.572;2022-07-15T08:52:44;100490.80;;;18.97;56.46
60611;BME280;46439;51.164;13.572;2022-07-15T08:55:13;100490.23;;;18.99;56.53
60611;BME280;46439;51.164;13.572;2022-07-15T08:57:47;100489.80;;;18.95;56.32
60611;BME280;46439;51.164;13.572;2022-07-15T09:00:16;100490.77;;;18.95;56.20
60611;BME280;46439;51.164;13.572;2022-07-15T09:02:45;100484.86;;;19.01;56.27
60611;BME280;46439;51.164;13.572;2022-07-15T09:05:26;100485.20;;;19.09;56.32
60611;BME280;46439;51.164;13.572;2022-07-15T09:07:58;100486.06;;;19.18;56.43
60611;BME280;46439;51.164;13.572;2022-07-15T09:10:34;100491.14;;;19.25;56.39
60611;BME280;46439;51.164;13.572;2022-07-15T09:13:09;100494.83;;;19.22;56.19
60611;BME280;46439;51.164;13.572;2022-07-15T09:15:39;100491.11;;;19.19;56.02
60611;BME280;46439;51.164;13.572;2022-07-15T09:18:12;100492.02;;;19.22;56.10
60611;BME280;46439;51.164;13.572;2022-07-15T09:20:42;100489.61;;;19.26;56.08
60611;BME280;46439;51.164;13.572;2022-07-15T09:23:15;100493.63;;;19.29;56.01
60611;BME280;46439;51.164;13.572;2022-07-15T09:25:49;100498.31;;;19.29;55.92
60611;BME280;46439;51.164;13.572;2022-07-15T09:28:19;100494.08;;;19.30;55.94
60611;BME280;46439;51.164;13.572;2022-07-15T09:30:47;100490.03;;;19.36;55.93
60611;BME280;46439;51.164;13.572;2022-07-15T09:33:36;100487.52;;;19.40;55.85
60611;BME280;46439;51.164;13.572;2022-07-15T09:36:12;100493.16;;;19.40;55.76
60611;BME280;46439;51.164;13.572;2022-07-15T09:38:46;100488.52;;;19.37;55.71
60611;BME280;46439;51.164;13.572;2022-07-15T09:41:29;100484.39;;;19.36;55.60
60611;BME280;46439;51.164;13.572;2022-07-15T09:44:01;100473.27;;;19.47;55.63
60611;BME280;46439;51.164;13.572;2022-07-15T09:46:38;100472.04;;;19.61;55.74
60611;BME280;46439;51.164;13.572;2022-07-15T09:49:11;100475.40;;;19.78;55.78
60611;BME280;46439;51.164;13.572;2022-07-15T09:51:48;100473.83;;;19.86;55.77
60611;BME280;46439;51.164;13.572;2022-07-15T09:54:17;100471.48;;;19.92;55.74
60611;BME280;46439;51.164;13.572;2022-07-15T09:56:48;100476.46;;;19.92;55.53
60611;BME280;46439;51.164;13.572;2022-07-15T09:59:16;100478.69;;;19.93;55.45
60611;BME280;46439;51.164;13.572;2022-07-15T10:01:46;100484.48;;;20.00;55.49
60611;BME280;46439;51.164;13.572;2022-07-15T10:04:20;100478.86;;;20.01;55.38
60611;BME280;46439;51.164;13.572;2022-07-15T10:06:50;100480.10;;;20.03;55.41
60611;BME280;46439;51.164;13.572;2022-07-15T10:09:22;100480.58;;;20.05;55.25
60611;BME280;46439;51.164;13.572;2022-07-15T10:11:53;100476.96;;;20.14;55.23
60611;BME280;46439;51.164;13.572;2022-07-15T10:14:37;100480.92;;;20.25;55.21
60611;BME280;46439;51.164;13.572;2022-07-15T10:17:42;100480.34;;;20.32;55.18
60611;BME280;46439;51.164;13.572;2022-07-15T10:23:22;100484.45;;;20.46;54.94
60611;BME280;46439;51.164;13.572;2022-07-15T10:26:06;100478.77;;;20.51;54.85
60611;BME280;46439;51.164;13.572;2022-07-15T10:28:49;100479.72;;;20.56;54.82
60611;BME280;46439;51.164;13.572;2022-07-15T10:31:20;100471.11;;;20.61;54.69
60611;BME280;46439;51.164;13.572;2022-07-15T10:36:41;100474.54;;;20.64;54.48
60611;BME280;46439;51.164;13.572;2022-07-15T10:39:25;100479.44;;;20.64;54.41
60611;BME280;46439;51.164;13.572;2022-07-15T10:41:57;100486.12;;;20.62;54.24
60611;BME280;46439;51.164;13.572;2022-07-15T10:44:26;100477.02;;;20.59;54.02
60611;BME280;46439;51.164;13.572;2022-07-15T10:47:18;100478.34;;;20.64;54.01
60611;BME280;46439;51.164;13.572;2022-07-15T10:49:48;100474.99;;;20.77;54.17
60611;BME280;46439;51.164;13.572;2022-07-15T10:52:18;100474.56;;;20.85;54.10
60611;BME280;46439;51.164;13.572;2022-07-15T10:54:59;100480.61;;;20.88;53.95
60611;BME280;46439;51.164;13.572;2022-07-15T10:57:51;100475.39;;;20.87;53.86
60611;BME280;46439;51.164;13.572;2022-07-15T11:00:30;100473.52;;;20.86;53.72
60611;BME280;46439;51.164;13.572;2022-07-15T11:03:07;100472.71;;;20.94;53.67
60611;BME280;46439;51.164;13.572;2022-07-15T11:08:51;100472.48;;;21.06;53.53
60611;BME280;46439;51.164;13.572;2022-07-15T11:11:46;100472.94;;;21.11;53.50
60611;BME280;46439;51.164;13.572;2022-07-15T11:14:43;100472.23;;;21.19;53.35
60611;BME280;46439;51.164;13.572;2022-07-15T11:17:13;100467.86;;;21.23;53.35
60611;BME280;46439;51.164;13.572;2022-07-15T11:19:47;100466.20;;;21.25;53.25
60611;BME280;46439;51.164;13.572;2022-07-15T11:22:17;100466.30;;;21.25;53.13
60611;BME280;46439;51.164;13.572;2022-07-15T11:24:46;100466.27;;;21.29;53.03
60611;BME280;46439;51.164;13.572;2022-07-15T11:27:15;100464.76;;;21.39;53.02
60611;BME280;46439;51.164;13.572;2022-07-15T11:29:49;100463.14;;;21.46;52.94
60611;BME280;46439;51.164;13.572;2022-07-15T11:32:20;100463.60;;;21.54;52.92
60611;BME280;46439;51.164;13.572;2022-07-15T11:34:50;100463.79;;;21.57;52.72
60611;BME280;46439;51.164;13.572;2022-07-15T11:37:22;100457.67;;;21.59;52.73
60611;BME280;46439;51.164;13.572;2022-07-15T11:40:07;100458.91;;;21.65;52.64
60611;BME280;46439;51.164;13.572;2022-07-15T11:42:36;100459.55;;;21.73;52.71
60611;BME280;46439;51.164;13.572;2022-07-15T11:45:38;100456.84;;;21.75;52.65
60611;BME280;46439;51.164;13.572;2022-07-15T11:48:07;100459.27;;;21.78;52.47
60611;BME280;46439;51.164;13.572;2022-07-15T11:50:37;100456.36;;;21.86;52.37
60611;BME280;46439;51.164;13.572;2022-07-15T11:53:14;100458.80;;;21.92;52.35
60611;BME280;46439;51.164;13.572;2022-07-15T11:55:54;100454.55;;;21.91;52.15
60611;BME280;46439;51.164;13.572;2022-07-15T11:58:31;100455.33;;;21.88;52.08
60611;BME280;46439;51.164;13.572;2022-07-15T12:01:02;100454.91;;;21.84;51.87
60611;BME280;46439;51.164;13.572;2022-07-15T12:03:39;100457.35;;;21.78;51.77
60611;BME280;46439;51.164;13.572;2022-07-15T12:06:16;100455.99;;;21.79;51.65
60611;BME280;46439;51.164;13.572;2022-07-15T12:08:48;100453.07;;;21.83;51.62
60611;BME280;46439;51.164;13.572;2022-07-15T12:11:19;100448.64;;;22.00;51.85
60611;BME280;46439;51.164;13.572;2022-07-15T12:13:51;100451.71;;;22.21;51.81
60611;BME280;46439;51.164;13.572;2022-07-15T12:16:24;100448.88;;;22.31;52.02
60611;BME280;46439;51.164;13.572;2022-07-15T12:18:55;100447.09;;;22.35;51.70
60611;BME280;46439;51.164;13.572;2022-07-15T12:21:25;100450.84;;;22.38;51.59
60611;BME280;46439;51.164;13.572;2022-07-15T12:24:09;100454.89;;;22.30;51.38
60611;BME280;46439;51.164;13.572;2022-07-15T12:26:40;100458.13;;;22.20;51.09
60611;BME280;46439;51.164;13.572;2022-07-15T12:29:10;100456.52;;;22.20;51.04
60611;BME280;46439;51.164;13.572;2022-07-15T12:31:40;100454.77;;;22.19;50.87
60611;BME280;46439;51.164;13.572;2022-07-15T12:34:11;100455.47;;;22.18;50.81
60611;BME280;46439;51.164;13.572;2022-07-15T12:36:40;100449.64;;;22.24;50.75
60611;BME280;46439;51.164;13.572;2022-07-15T12:39:15;100448.23;;;22.37;50.88
60611;BME280;46439;51.164;13.572;2022-07-15T12:41:58;100451.02;;;22.42;50.86
60611;BME280;46439;51.164;13.572;2022-07-15T12:44:29;100451.47;;;22.34;50.57
60611;BME280;46439;51.164;13.572;2022-07-15T12:47:00;100448.23;;;22.32;50.31
60611;BME280;46439;51.164;13.572;2022-07-15T12:49:46;100439.77;;;22.39;50.48
60611;BME280;46439;51.164;13.572;2022-07-15T12:52:35;100436.36;;;22.44;50.53
60611;BME280;46439;51.164;13.572;2022-07-15T12:55:16;100445.08;;;22.40;50.24
60611;BME280;46439;51.164;13.572;2022-07-15T12:57:44;100446.58;;;22.37;49.91
60611;BME280;46439;51.164;13.572;2022-07-15T13:00:15;100447.99;;;22.31;49.86
60611;BME280;46439;51.164;13.572;2022-07-15T13:03:02;100443.88;;;22.27;49.91
60611;BME280;46439;51.164;13.572;2022-07-15T13:05:32;100443.19;;;22.24;49.66
60611;BME280;46439;51.164;13.572;2022-07-15T13:08:02;100440.16;;;22.28;49.73